Time;durP1;ratioP1;P1;durP2;ratioP2;P2;SDS_P1;SDS_P2;PMS_P1;PMS_P2;Temp;Humidity;BMP_temperature;BMP_pressure;BME280_temperature;BME280_humidity;BME280_pressure;Samples;Min_cycle;Max_cycle;Signal;HPM_P1;HPM_P2
2022/08/30 00:01:04;;;;;;;4.32;3.92;;;;;;;;;;5001262;28;93195;-72
2022/08/30 00:03:41;;;;;;;6.47;4.47;;;;;;;;;;5004428;28;93909;-72
2022/08/30 00:06:08;;;;;;;4.43;4.03;;;;;;;;;;5006989;28;94817;-72
2022/08/30 00:08:35;;;;;;;5.50;4.40;;;;;;;;;;5006383;28;94135;-72
2022/08/30 00:11:03;;;;;;;6.53;4.78;;;;;;;;;;5013329;28;92432;-72
2022/08/30 00:13:30;;;;;;;6.55;4.78;;;;;;;;;;5012773;28;93927;-72
2022/08/30 00:15:57;;;;;;;12.65;5.30;;;;;;;;;;5006587;28;94162;-72
2022/08/30 00:18:23;;;;;;;9.52;4.68;;;;;;;;;;5011955;28;92440;-72
2022/08/30 00:20:50;;;;;;;10.68;5.20;;;;;;;;;;5014011;28;94189;-72
2022/08/30 00:23:18;;;;;;;9.68;4.97;;;;;;;;;;5012628;28;92996;-72
2022/08/30 00:25:44;;;;;;;10.38;5.13;;;;;;;;;;5013364;28;92544;-72
2022/08/30 00:28:11;;;;;;;5.68;5.07;;;;;;;;;;5013521;28;93434;-72
2022/08/30 00:30:38;;;;;;;15.15;5.20;;;;;;;;;;5005729;28;96762;-72
2022/08/30 00:33:05;;;;;;;5.32;4.75;;;;;;;;;;5010715;28;96957;-72
2022/08/30 00:35:31;;;;;;;7.32;5.13;;;;;;;;;;5008284;28;94059;-72
2022/08/30 00:37:57;;;;;;;6.22;5.28;;;;;;;;;;5007393;28;92506;-72
2022/08/30 00:40:24;;;;;;;8.55;5.28;;;;;;;;;;5009135;28;92840;-72
2022/08/30 00:42:53;;;;;;;10.95;5.80;;;;;;;;;;5007364;28;94278;-72
2022/08/30 00:45:35;;;;;;;8.60;5.30;;;;;;;;;;5013897;28;92696;-72
2022/08/30 00:48:02;;;;;;;8.32;5.65;;;;;;;;;;5003742;28;93133;-72
2022/08/30 00:50:36;;;;;;;6.82;5.10;;;;;;;;;;5013238;28;92625;-72
2022/08/30 00:53:04;;;;;;;6.18;5.18;;;;;;;;;;5001229;28;94134;-72
2022/08/30 00:55:32;;;;;;;6.93;5.30;;;;;;;;;;5011612;28;95373;-72
2022/08/30 00:58:00;;;;;;;7.82;5.25;;;;;;;;;;5008655;28;92513;-72
2022/08/30 01:00:29;;;;;;;8.23;5.45;;;;;;;;;;5003748;28;94938;-72
2022/08/30 01:02:56;;;;;;;6.18;5.70;;;;;;;;;;5013152;28;93284;-72
2022/08/30 01:05:22;;;;;;;15.68;5.75;;;;;;;;;;5012353;28;92470;-72
2022/08/30 01:07:49;;;;;;;10.27;6.22;;;;;;;;;;5013952;28;93998;-72
2022/08/30 01:10:16;;;;;;;6.85;6.00;;;;;;;;;;5018764;28;93579;-72
2022/08/30 01:12:43;;;;;;;9.93;6.28;;;;;;;;;;5012176;28;93701;-71
2022/08/30 01:15:11;;;;;;;8.70;6.47;;;;;;;;;;5004951;28;93582;-72
2022/08/30 01:17:40;;;;;;;9.07;5.75;;;;;;;;;;5016809;28;93186;-72
2022/08/30 01:20:08;;;;;;;8.60;6.95;;;;;;;;;;5014129;28;94938;-72
2022/08/30 01:22:34;;;;;;;7.18;6.50;;;;;;;;;;5015064;28;93343;-72
2022/08/30 01:25:01;;;;;;;8.60;6.85;;;;;;;;;;5016368;28;92441;-71
2022/08/30 01:27:29;;;;;;;8.98;6.93;;;;;;;;;;5015414;28;92927;-72
2022/08/30 01:29:57;;;;;;;12.80;6.43;;;;;;;;;;5010192;28;92894;-72
2022/08/30 01:32:24;;;;;;;8.20;6.22;;;;;;;;;;5010857;28;92593;-72
2022/08/30 01:34:55;;;;;;;7.95;6.60;;;;;;;;;;5005272;28;94168;-72
2022/08/30 01:37:26;;;;;;;13.57;7.28;;;;;;;;;;5015665;28;91918;-71
2022/08/30 01:39:53;;;;;;;10.43;7.28;;;;;;;;;;5013244;28;93430;-71
2022/08/30 01:42:19;;;;;;;10.27;7.93;;;;;;;;;;5010931;28;94173;-71
2022/08/30 01:44:47;;;;;;;13.18;7.40;;;;;;;;;;5002131;28;94848;-71
2022/08/30 01:47:14;;;;;;;9.90;7.00;;;;;;;;;;5015270;28;95697;-71
2022/08/30 01:49:40;;;;;;;7.97;7.38;;;;;;;;;;5009011;28;94210;-72
2022/08/30 01:52:07;;;;;;;12.88;7.78;;;;;;;;;;5011518;28;92405;-72
2022/08/30 01:54:34;;;;;;;9.05;8.15;;;;;;;;;;5014456;28;93544;-72
2022/08/30 01:57:04;;;;;;;8.77;7.90;;;;;;;;;;5014318;28;92570;-72
2022/08/30 01:59:31;;;;;;;10.02;8.55;;;;;;;;;;5016302;28;93764;-71
2022/08/30 02:01:57;;;;;;;12.90;8.95;;;;;;;;;;5010316;28;93576;-72
2022/08/30 02:04:25;;;;;;;11.68;8.93;;;;;;;;;;5015194;28;93026;-72
2022/08/30 02:06:52;;;;;;;10.88;8.27;;;;;;;;;;5005936;28;93879;-71
2022/08/30 02:09:18;;;;;;;10.68;8.15;;;;;;;;;;5012130;28;95569;-72
2022/08/30 02:11:46;;;;;;;10.95;8.57;;;;;;;;;;5014869;28;92525;-72
2022/08/30 02:14:13;;;;;;;12.40;9.52;;;;;;;;;;5016230;28;93947;-71
2022/08/30 02:16:40;;;;;;;13.43;9.23;;;;;;;;;;5015118;28;92650;-72
2022/08/30 02:19:06;;;;;;;13.25;9.68;;;;;;;;;;5015608;28;93282;-72
2022/08/30 02:21:33;;;;;;;11.07;9.52;;;;;;;;;;5013809;28;93525;-72
2022/08/30 02:23:59;;;;;;;11.13;9.15;;;;;;;;;;5013085;28;92542;-71
2022/08/30 02:26:26;;;;;;;11.93;8.93;;;;;;;;;;5014087;28;94054;-72
2022/08/30 02:28:52;;;;;;;11.57;10.10;;;;;;;;;;5022705;28;93257;-72
2022/08/30 02:31:19;;;;;;;11.05;9.75;;;;;;;;;;5008030;28;92886;-72
2022/08/30 02:33:47;;;;;;;11.57;9.50;;;;;;;;;;5007435;28;95709;-72
2022/08/30 02:36:14;;;;;;;16.23;9.95;;;;;;;;;;5011755;28;94367;-72
2022/08/30 02:38:40;;;;;;;11.05;9.88;;;;;;;;;;5011548;28;93069;-73
2022/08/30 02:41:06;;;;;;;12.45;10.52;;;;;;;;;;5002936;28;94143;-73
2022/08/30 02:43:33;;;;;;;11.35;10.15;;;;;;;;;;5014928;28;92493;-72
2022/08/30 02:45:59;;;;;;;11.30;10.07;;;;;;;;;;5013366;28;94036;-72
2022/08/30 02:48:25;;;;;;;11.35;10.27;;;;;;;;;;5013990;28;93474;-73
2022/08/30 02:50:52;;;;;;;12.65;10.25;;;;;;;;;;5009173;28;91711;-72
2022/08/30 02:53:19;;;;;;;11.43;10.32;;;;;;;;;;5013314;28;93289;-72
2022/08/30 02:55:46;;;;;;;16.83;10.85;;;;;;;;;;5007100;28;94043;-72
2022/08/30 02:58:13;;;;;;;11.63;10.55;;;;;;;;;;5012511;28;94763;-72
2022/08/30 03:00:40;;;;;;;11.90;10.30;;;;;;;;;;5007341;28;94120;-72
2022/08/30 03:03:07;;;;;;;10.73;9.85;;;;;;;;;;5011657;28;92401;-72
2022/08/30 03:05:34;;;;;;;12.57;10.30;;;;;;;;;;5014108;28;93989;-72
2022/08/30 03:08:05;;;;;;;20.77;11.07;;;;;;;;;;5011892;28;94754;-72
2022/08/30 03:10:31;;;;;;;12.23;11.02;;;;;;;;;;5013957;28;93679;-72
2022/08/30 03:12:57;;;;;;;13.13;11.13;;;;;;;;;;5007929;28;93221;-72
2022/08/30 03:15:24;;;;;;;15.27;10.60;;;;;;;;;;5002367;28;93373;-72
2022/08/30 03:17:51;;;;;;;11.70;10.27;;;;;;;;;;5013639;28;92582;-72
2022/08/30 03:20:18;;;;;;;13.60;10.68;;;;;;;;;;5015028;28;94056;-72
2022/08/30 03:22:45;;;;;;;13.43;11.32;;;;;;;;;;5001136;28;95595;-72
2022/08/30 03:25:11;;;;;;;12.77;11.13;;;;;;;;;;5014090;28;95560;-72
2022/08/30 03:27:38;;;;;;;13.02;11.68;;;;;;;;;;5011337;28;93584;-72
2022/08/30 03:30:05;;;;;;;12.90;10.93;;;;;;;;;;5012879;28;92498;-72
2022/08/30 03:32:31;;;;;;;13.25;11.93;;;;;;;;;;5010870;28;92967;-72
2022/08/30 03:34:58;;;;;;;12.15;11.02;;;;;;;;;;5003838;28;93444;-72
2022/08/30 03:37:26;;;;;;;12.77;11.50;;;;;;;;;;5013951;28;92442;-72
2022/08/30 03:39:53;;;;;;;12.82;11.52;;;;;;;;;;5007327;28;93930;-72
2022/08/30 03:42:20;;;;;;;13.30;11.18;;;;;;;;;;5006645;28;92407;-72
2022/08/30 03:44:48;;;;;;;15.13;11.30;;;;;;;;;;5013653;28;93102;-72
2022/08/30 03:47:15;;;;;;;13.27;11.68;;;;;;;;;;5010780;28;96620;-72
2022/08/30 03:49:41;;;;;;;15.40;12.10;;;;;;;;;;5011177;28;92429;-72
2022/08/30 03:52:09;;;;;;;19.10;12.20;;;;;;;;;;5011809;28;93985;-72
2022/08/30 03:54:35;;;;;;;13.75;11.45;;;;;;;;;;5011912;28;94241;-72
2022/08/30 03:57:03;;;;;;;21.05;11.60;;;;;;;;;;5011779;28;92422;-72
2022/08/30 03:59:29;;;;;;;12.30;11.05;;;;;;;;;;5013737;28;93306;-72
2022/08/30 04:01:57;;;;;;;13.90;12.07;;;;;;;;;;5014680;28;94217;-72
2022/08/30 04:04:24;;;;;;;16.75;11.20;;;;;;;;;;5013619;28;93566;-72
2022/08/30 04:06:50;;;;;;;12.95;11.13;;;;;;;;;;5005015;28;94113;-72
2022/08/30 04:09:17;;;;;;;14.07;11.52;;;;;;;;;;5007022;28;92538;-72
2022/08/30 04:11:43;;;;;;;15.10;12.07;;;;;;;;;;5010751;28;94797;-72
2022/08/30 04:14:10;;;;;;;16.83;13.02;;;;;;;;;;5006419;28;93499;-72
2022/08/30 04:16:36;;;;;;;13.25;11.80;;;;;;;;;;5013103;28;92458;-73
2022/08/30 04:19:03;;;;;;;20.60;12.93;;;;;;;;;;5011063;28;93889;-72
2022/08/30 04:21:29;;;;;;;19.73;13.13;;;;;;;;;;5013175;28;94254;-72
2022/08/30 04:23:56;;;;;;;13.88;12.27;;;;;;;;;;5013908;28;92545;-72
2022/08/30 04:26:22;;;;;;;15.88;12.65;;;;;;;;;;5011636;28;94231;-72
2022/08/30 04:28:54;;;;;;;14.90;12.77;;;;;;;;;;5012916;28;91733;-72
2022/08/30 04:31:21;;;;;;;12.65;11.45;;;;;;;;;;5003025;28;92792;-72
2022/08/30 04:33:47;;;;;;;19.63;13.07;;;;;;;;;;5003213;28;93249;-72
2022/08/30 04:36:14;;;;;;;18.67;12.77;;;;;;;;;;5011095;28;95899;-72
2022/08/30 04:38:40;;;;;;;16.33;12.77;;;;;;;;;;5008140;28;96302;-72
2022/08/30 04:41:11;;;;;;;13.32;12.05;;;;;;;;;;5005550;28;94153;-72
2022/08/30 04:43:38;;;;;;;14.95;11.98;;;;;;;;;;5006945;28;92404;-72
2022/08/30 04:46:06;;;;;;;16.17;12.60;;;;;;;;;;5007331;28;94572;-72
2022/08/30 04:48:32;;;;;;;24.08;12.30;;;;;;;;;;5012712;28;92325;-72
2022/08/30 04:50:59;;;;;;;13.43;12.13;;;;;;;;;;5005096;28;93176;-72
2022/08/30 04:53:25;;;;;;;12.55;11.18;;;;;;;;;;5012169;28;93374;-72
2022/08/30 04:55:51;;;;;;;13.63;11.85;;;;;;;;;;5010131;28;92393;-72
2022/08/30 04:58:18;;;;;;;13.10;11.77;;;;;;;;;;5011367;28;93861;-72
2022/08/30 05:00:44;;;;;;;13.85;12.02;;;;;;;;;;4997405;28;96506;-72
2022/08/30 05:03:11;;;;;;;13.20;11.95;;;;;;;;;;5010069;28;92631;-72
2022/08/30 05:05:40;;;;;;;13.20;11.80;;;;;;;;;;5011328;28;93910;-72
2022/08/30 05:08:11;;;;;;;12.82;11.63;;;;;;;;;;5009242;28;92574;-72
2022/08/30 05:10:44;;;;;;;15.65;11.73;;;;;;;;;;5000480;28;93538;-72
2022/08/30 05:13:10;;;;;;;;;;;;;;;;;;5002973;28;94149;-72
2022/08/30 05:15:38;;;;;;;10.25;9.25;;;;;;;;;;5013563;28;120511;-72
2022/08/30 05:18:06;;;;;;;17.77;10.65;;;;;;;;;;5011999;28;93964;-72
2022/08/30 05:20:33;;;;;;;12.98;10.98;;;;;;;;;;4997356;28;93076;-72
2022/08/30 05:22:59;;;;;;;12.45;10.38;;;;;;;;;;5007121;28;92457;-72
2022/08/30 05:25:28;;;;;;;10.80;9.73;;;;;;;;;;5010161;28;94973;-72
2022/08/30 05:27:54;;;;;;;11.48;10.40;;;;;;;;;;4993749;28;94082;-72
2022/08/30 05:30:21;;;;;;;12.38;9.60;;;;;;;;;;5002265;28;92492;-72
2022/08/30 05:32:48;;;;;;;9.70;8.75;;;;;;;;;;4986099;28;94555;-70
2022/08/30 05:35:15;;;;;;;11.60;9.18;;;;;;;;;;4969363;28;93902;-71
2022/08/30 05:37:41;;;;;;;10.57;9.57;;;;;;;;;;4967670;28;94903;-71
2022/08/30 05:40:10;;;;;;;9.63;8.70;;;;;;;;;;4963492;28;95261;-71
2022/08/30 05:42:37;;;;;;;9.98;9.15;;;;;;;;;;4992715;28;91802;-70
2022/08/30 05:45:04;;;;;;;18.13;9.70;;;;;;;;;;4992131;28;92644;-70
2022/08/30 05:47:31;;;;;;;11.90;8.68;;;;;;;;;;4978643;28;94394;-71
2022/08/30 05:49:57;;;;;;;12.98;9.18;;;;;;;;;;4977926;28;96717;-71
2022/08/30 05:52:23;;;;;;;10.30;9.30;;;;;;;;;;4986719;28;94212;-71
2022/08/30 05:54:51;;;;;;;13.05;8.98;;;;;;;;;;4986186;28;93457;-71
2022/08/30 05:57:17;;;;;;;15.52;8.55;;;;;;;;;;4991534;28;93989;-71
2022/08/30 05:59:44;;;;;;;10.57;8.32;;;;;;;;;;4986537;28;94266;-72
2022/08/30 06:02:11;;;;;;;8.80;7.90;;;;;;;;;;4981955;28;94958;-71
2022/08/30 06:04:37;;;;;;;9.10;7.65;;;;;;;;;;4983640;28;94234;-71
2022/08/30 06:07:03;;;;;;;8.52;6.97;;;;;;;;;;4996549;28;93460;-71
2022/08/30 06:09:30;;;;;;;8.30;7.57;;;;;;;;;;4991616;28;93064;-71
2022/08/30 06:11:56;;;;;;;12.07;7.30;;;;;;;;;;4987749;28;93437;-70
2022/08/30 06:14:23;;;;;;;13.80;7.55;;;;;;;;;;4984919;28;96871;-70
2022/08/30 06:16:50;;;;;;;7.13;6.63;;;;;;;;;;4980565;28;95516;-71
2022/08/30 06:19:17;;;;;;;7.38;6.68;;;;;;;;;;4979915;28;93557;-71
2022/08/30 06:21:46;;;;;;;14.43;7.25;;;;;;;;;;4984777;28;92573;-71
2022/08/30 06:24:13;;;;;;;7.47;6.60;;;;;;;;;;4988402;28;93151;-71
2022/08/30 06:26:41;;;;;;;6.88;6.38;;;;;;;;;;4990358;28;93321;-71
2022/08/30 06:29:09;;;;;;;7.15;6.55;;;;;;;;;;4985310;28;93011;-71
2022/08/30 06:31:35;;;;;;;7.18;6.15;;;;;;;;;;4986294;28;93060;-70
2022/08/30 06:34:02;;;;;;;7.07;6.22;;;;;;;;;;4993126;28;94292;-70
2022/08/30 06:36:29;;;;;;;6.43;5.65;;;;;;;;;;4990372;28;94470;-70
2022/08/30 06:38:55;;;;;;;6.88;6.22;;;;;;;;;;4975196;28;97053;-69
2022/08/30 06:41:23;;;;;;;6.25;5.50;;;;;;;;;;4989283;28;92708;-72
2022/08/30 06:43:50;;;;;;;5.57;5.18;;;;;;;;;;4994340;28;94077;-75
2022/08/30 06:46:21;;;;;;;8.57;5.40;;;;;;;;;;4977640;28;95717;-72
2022/08/30 06:48:48;;;;;;;5.68;4.93;;;;;;;;;;4979364;28;94465;-72
2022/08/30 06:51:17;;;;;;;12.68;5.00;;;;;;;;;;4986930;28;93177;-71
2022/08/30 06:53:44;;;;;;;7.05;4.25;;;;;;;;;;4989990;28;93919;-72
2022/08/30 06:56:11;;;;;;;4.20;3.85;;;;;;;;;;4998743;28;92049;-72
2022/08/30 06:58:42;;;;;;;7.82;4.07;;;;;;;;;;4988726;28;94180;-73
2022/08/30 07:01:12;;;;;;;4.40;3.40;;;;;;;;;;4994113;28;92443;-73
2022/08/30 07:03:39;;;;;;;3.85;3.13;;;;;;;;;;4993018;28;94888;-73
2022/08/30 07:06:06;;;;;;;4.82;3.10;;;;;;;;;;4988888;28;94346;-73
2022/08/30 07:08:32;;;;;;;5.75;2.95;;;;;;;;;;4995138;28;92463;-72
2022/08/30 07:10:59;;;;;;;5.68;2.47;;;;;;;;;;4994687;28;93244;-72
2022/08/30 07:13:27;;;;;;;11.75;2.42;;;;;;;;;;4989842;28;93435;-71
2022/08/30 07:15:53;;;;;;;3.90;2.58;;;;;;;;;;4994935;28;92546;-73
2022/08/30 07:21:09;;;;;;;2.47;2.00;;;;;;;;;;4991003;28;91824;-73
2022/08/30 07:23:35;;;;;;;6.45;1.80;;;;;;;;;;4995616;28;92424;-73
2022/08/30 07:26:03;;;;;;;1.90;1.63;;;;;;;;;;4993855;28;94348;-73
2022/08/30 07:28:30;;;;;;;3.45;1.75;;;;;;;;;;4993161;28;94875;-73
2022/08/30 07:30:56;;;;;;;3.72;1.42;;;;;;;;;;4990341;28;94209;-73
2022/08/30 07:33:22;;;;;;;7.00;1.50;;;;;;;;;;4993242;28;93250;-73
2022/08/30 07:35:49;;;;;;;5.85;1.50;;;;;;;;;;4991362;28;92372;-73
2022/08/30 07:38:15;;;;;;;5.32;1.70;;;;;;;;;;4981317;28;93851;-71
2022/08/30 07:40:41;;;;;;;2.30;1.50;;;;;;;;;;4996348;28;94066;-73
2022/08/30 07:43:08;;;;;;;4.22;1.63;;;;;;;;;;4994731;28;92980;-72
2022/08/30 07:45:35;;;;;;;1.20;1.20;;;;;;;;;;4987917;28;92523;-72
2022/08/30 07:48:02;;;;;;;1.60;1.48;;;;;;;;;;4988598;28;93353;-71
2022/08/30 07:50:29;;;;;;;1.77;1.17;;;;;;;;;;4993148;28;93814;-74
2022/08/30 07:52:55;;;;;;;1.35;1.08;;;;;;;;;;4992355;28;96535;-73
2022/08/30 07:55:22;;;;;;;1.65;1.30;;;;;;;;;;4994127;28;92523;-72
2022/08/30 07:57:48;;;;;;;3.28;1.42;;;;;;;;;;4994519;28;93916;-72
2022/08/30 08:00:14;;;;;;;5.22;1.00;;;;;;;;;;4997838;28;93453;-72
2022/08/30 08:02:41;;;;;;;1.20;1.10;;;;;;;;;;4993609;28;93100;-72
2022/08/30 08:05:08;;;;;;;1.20;1.10;;;;;;;;;;4994459;28;92499;-71
2022/08/30 08:07:38;;;;;;;1.63;1.08;;;;;;;;;;4993941;28;96466;-71
2022/08/30 08:10:04;;;;;;;2.20;1.10;;;;;;;;;;4994303;28;93093;-72
2022/08/30 08:12:31;;;;;;;3.65;1.20;;;;;;;;;;4994510;28;94146;-72
2022/08/30 08:14:57;;;;;;;3.88;1.85;;;;;;;;;;4993674;28;92496;-72
2022/08/30 08:17:23;;;;;;;1.33;1.23;;;;;;;;;;4992258;28;96017;-72
2022/08/30 08:19:50;;;;;;;3.17;1.52;;;;;;;;;;4994128;28;93488;-72
2022/08/30 08:22:16;;;;;;;2.22;1.23;;;;;;;;;;4997582;28;92419;-72
2022/08/30 08:24:47;;;;;;;2.45;1.40;;;;;;;;;;4992863;28;95055;-72
2022/08/30 08:27:13;;;;;;;1.48;1.23;;;;;;;;;;4994652;28;92524;-72
2022/08/30 08:29:40;;;;;;;2.80;1.27;;;;;;;;;;4994040;28;93913;-72
2022/08/30 08:32:06;;;;;;;5.00;1.30;;;;;;;;;;4993369;28;93830;-72
2022/08/30 08:34:33;;;;;;;1.30;1.20;;;;;;;;;;4994511;28;91670;-72
2022/08/30 08:36:59;;;;;;;3.67;1.40;;;;;;;;;;4993508;28;94894;-72
2022/08/30 08:39:26;;;;;;;1.38;1.25;;;;;;;;;;4994010;28;93305;-72
2022/08/30 08:41:55;;;;;;;2.05;1.20;;;;;;;;;;4986491;28;94969;-72
2022/08/30 08:44:30;;;;;;;2.08;1.40;;;;;;;;;;4996114;28;96829;-72
2022/08/30 08:47:02;;;;;;;3.00;1.33;;;;;;;;;;4994183;28;93298;-72
2022/08/30 08:49:29;;;;;;;6.63;1.42;;;;;;;;;;4993979;28;93749;-72
2022/08/30 08:54:51;;;;;;;2.67;1.10;;;;;;;;;;4993216;28;92505;-72
2022/08/30 08:57:17;;;;;;;1.67;1.10;;;;;;;;;;4993993;28;93235;-72
2022/08/30 08:59:53;;;;;;;1.45;1.30;;;;;;;;;;4993266;28;92483;-72
2022/08/30 09:02:27;;;;;;;1.58;1.20;;;;;;;;;;4994154;28;92433;-72
2022/08/30 09:04:56;;;;;;;4.82;1.50;;;;;;;;;;4993701;28;93238;-72
2022/08/30 09:07:24;;;;;;;4.22;1.30;;;;;;;;;;4993608;28;96181;-72
2022/08/30 09:09:51;;;;;;;5.97;1.27;;;;;;;;;;4993650;28;95686;-72
2022/08/30 09:12:17;;;;;;;2.55;1.55;;;;;;;;;;4993141;28;93446;-72
2022/08/30 09:14:50;;;;;;;4.70;1.20;;;;;;;;;;4993389;28;92506;-72
2022/08/30 09:17:21;;;;;;;1.35;1.10;;;;;;;;;;4994037;28;93002;-72
2022/08/30 09:19:50;;;;;;;7.35;1.35;;;;;;;;;;4992385;28;93631;-72
2022/08/30 09:22:26;;;;;;;2.03;1.70;;;;;;;;;;4993821;28;92519;-72
2022/08/30 09:24:58;;;;;;;3.42;1.23;;;;;;;;;;4994205;28;91946;-72
2022/08/30 09:27:29;;;;;;;1.48;1.30;;;;;;;;;;4994041;28;94420;-72
2022/08/30 09:29:57;;;;;;;4.10;1.75;;;;;;;;;;4999952;28;92431;-72
2022/08/30 09:32:40;;;;;;;2.25;1.60;;;;;;;;;;4995322;28;96806;-72
2022/08/30 09:35:16;;;;;;;3.15;1.38;;;;;;;;;;4996597;28;93477;-71
2022/08/30 09:37:50;;;;;;;1.48;1.30;;;;;;;;;;4996840;28;93958;-72
2022/08/30 09:40:22;;;;;;;2.65;1.30;;;;;;;;;;4996085;28;94108;-72
2022/08/30 09:43:21;;;;;;;4.65;1.40;;;;;;;;;;4996574;28;92503;-72
2022/08/30 09:45:59;;;;;;;1.30;1.27;;;;;;;;;;4984077;28;96175;-72
2022/08/30 09:48:28;;;;;;;2.72;1.45;;;;;;;;;;4996114;28;93879;-72
2022/08/30 09:51:10;;;;;;;1.42;1.33;;;;;;;;;;4995835;28;92109;-71
2022/08/30 09:53:37;;;;;;;1.48;1.38;;;;;;;;;;4999667;28;93602;-73
2022/08/30 09:56:09;;;;;;;2.03;1.17;;;;;;;;;;4996123;28;92759;-72
2022/08/30 09:58:55;;;;;;;2.78;1.45;;;;;;;;;;4995521;28;95050;-72
2022/08/30 10:01:51;;;;;;;2.78;1.60;;;;;;;;;;4995801;28;94550;-72
2022/08/30 10:04:33;;;;;;;2.63;1.25;;;;;;;;;;4991300;28;93006;-71
2022/08/30 10:07:18;;;;;;;4.05;1.58;;;;;;;;;;4991642;28;94055;-72
2022/08/30 10:09:50;;;;;;;2.13;1.48;;;;;;;;;;4995084;28;93567;-72
2022/08/30 10:12:19;;;;;;;4.28;1.33;;;;;;;;;;4996444;28;92494;-72
2022/08/30 10:14:48;;;;;;;4.25;1.33;;;;;;;;;;4999311;28;93697;-72
2022/08/30 10:17:22;;;;;;;2.10;1.42;;;;;;;;;;4996057;28;91673;-72
2022/08/30 10:19:52;;;;;;;1.50;1.08;;;;;;;;;;4990951;28;93165;-72
2022/08/30 10:22:29;;;;;;;3.25;1.70;;;;;;;;;;4996251;28;92356;-72
2022/08/30 10:25:16;;;;;;;1.55;1.45;;;;;;;;;;4994585;28;94916;-72
2022/08/30 10:27:53;;;;;;;1.80;1.70;;;;;;;;;;4996089;28;95291;-72
2022/08/30 10:30:19;;;;;;;2.55;1.30;;;;;;;;;;4989831;28;93268;-73
2022/08/30 10:32:51;;;;;;;3.28;1.20;;;;;;;;;;4995735;28;92464;-72
2022/08/30 10:35:17;;;;;;;6.00;1.60;;;;;;;;;;4996334;28;92844;-72
2022/08/30 10:37:57;;;;;;;3.20;1.50;;;;;;;;;;4997378;28;92471;-72
2022/08/30 10:43:22;;;;;;;2.25;1.40;;;;;;;;;;4996174;28;92581;-71
2022/08/30 10:45:49;;;;;;;2.45;1.13;;;;;;;;;;4994998;28;92565;-72
2022/08/30 10:48:23;;;;;;;2.92;1.08;;;;;;;;;;4995891;28;93886;-72
2022/08/30 10:50:52;;;;;;;2.83;1.30;;;;;;;;;;4992936;28;95617;-72
2022/08/30 10:53:23;;;;;;;2.55;1.63;;;;;;;;;;4995650;28;92511;-72
2022/08/30 10:55:54;;;;;;;3.47;1.15;;;;;;;;;;4996082;28;93854;-72
2022/08/30 10:58:20;;;;;;;3.00;1.45;;;;;;;;;;4994803;28;94118;-72
2022/08/30 11:00:50;;;;;;;3.63;1.30;;;;;;;;;;4998486;28;92464;-72
2022/08/30 11:03:19;;;;;;;1.73;1.30;;;;;;;;;;4995715;28;92938;-72
2022/08/30 11:06:05;;;;;;;1.45;1.35;;;;;;;;;;4993950;28;92482;-71
2022/08/30 11:08:47;;;;;;;1.92;1.48;;;;;;;;;;4995734;28;93947;-72
2022/08/30 11:11:28;;;;;;;1.88;1.20;;;;;;;;;;4990158;28;94495;-72
2022/08/30 11:13:56;;;;;;;;;;;;;;;;;;4995454;28;93590;-71
2022/08/30 11:16:41;;;;;;;4.38;1.60;;;;;;;;;;4994369;28;122995;-71
2022/08/30 11:19:16;;;;;;;2.70;1.90;;;;;;;;;;4994575;28;94147;-71
2022/08/30 11:21:46;;;;;;;1.95;1.52;;;;;;;;;;4995187;28;92421;-72
2022/08/30 11:24:16;;;;;;;4.60;1.98;;;;;;;;;;4992486;28;93156;-72
2022/08/30 11:26:45;;;;;;;3.28;1.30;;;;;;;;;;4994432;28;92529;-72
2022/08/30 11:29:38;;;;;;;1.27;1.27;;;;;;;;;;4995187;28;93316;-71
2022/08/30 11:32:16;;;;;;;1.50;1.33;;;;;;;;;;4993434;28;93250;-71
2022/08/30 11:34:45;;;;;;;2.03;1.30;;;;;;;;;;4994649;28;91684;-71
2022/08/30 11:37:30;;;;;;;3.28;1.27;;;;;;;;;;4995171;28;92534;-71
2022/08/30 11:39:57;;;;;;;1.80;1.40;;;;;;;;;;4990068;28;93677;-71
2022/08/30 11:42:36;;;;;;;2.17;1.33;;;;;;;;;;4994084;28;94922;-72
2022/08/30 11:45:39;;;;;;;2.22;1.63;;;;;;;;;;4994934;28;96410;-71
2022/08/30 11:48:08;;;;;;;1.30;1.20;;;;;;;;;;4971215;28;93367;-71
2022/08/30 11:50:45;;;;;;;4.38;1.42;;;;;;;;;;4987820;28;93273;-71
2022/08/30 11:53:31;;;;;;;4.25;2.53;;;;;;;;;;4994738;28;93440;-71
2022/08/30 11:56:09;;;;;;;1.98;1.20;;;;;;;;;;4987855;28;93275;-71
2022/08/30 11:58:41;;;;;;;3.67;1.60;;;;;;;;;;4994840;28;93716;-71
2022/08/30 12:01:14;;;;;;;5.07;1.60;;;;;;;;;;4994454;28;93265;-71
2022/08/30 12:04:07;;;;;;;2.00;1.40;;;;;;;;;;4994420;28;92528;-71
2022/08/30 12:06:40;;;;;;;4.03;1.45;;;;;;;;;;4989114;28;93022;-71
2022/08/30 12:09:28;;;;;;;2.20;2.00;;;;;;;;;;4991632;28;96039;-71
2022/08/30 12:12:03;;;;;;;4.20;1.98;;;;;;;;;;4996907;28;93279;-71
2022/08/30 12:14:43;;;;;;;5.53;1.70;;;;;;;;;;4994542;28;94530;-71
2022/08/30 12:19:58;;;;;;;4.53;1.92;;;;;;;;;;4994237;28;92985;-71
2022/08/30 12:22:26;;;;;;;2.20;1.98;;;;;;;;;;4993914;28;94153;-71
2022/08/30 12:24:53;;;;;;;3.28;1.70;;;;;;;;;;4994177;28;92552;-71
2022/08/30 12:27:27;;;;;;;2.30;1.52;;;;;;;;;;4994876;28;93776;-71
2022/08/30 12:30:04;;;;;;;4.97;1.92;;;;;;;;;;4993262;28;93980;-71
2022/08/30 12:32:31;;;;;;;3.22;1.70;;;;;;;;;;4997425;28;92484;-71
2022/08/30 12:34:59;;;;;;;7.88;1.80;;;;;;;;;;4992377;28;96649;-72
2022/08/30 12:37:25;;;;;;;3.90;1.73;;;;;;;;;;4993596;28;92443;-71
2022/08/30 12:40:01;;;;;;;2.47;1.63;;;;;;;;;;4993602;28;93235;-71
2022/08/30 12:42:29;;;;;;;4.65;1.70;;;;;;;;;;4994194;28;93086;-71
2022/08/30 12:44:57;;;;;;;6.30;2.40;;;;;;;;;;4993284;28;92670;-71
2022/08/30 12:47:27;;;;;;;2.30;1.88;;;;;;;;;;4994208;28;92813;-71
2022/08/30 12:49:54;;;;;;;2.20;2.10;;;;;;;;;;4993544;28;94162;-71
2022/08/30 12:52:30;;;;;;;2.60;1.55;;;;;;;;;;4993713;28;92024;-71
2022/08/30 12:55:10;;;;;;;4.13;1.83;;;;;;;;;;4991351;28;93124;-71
2022/08/30 12:57:58;;;;;;;5.47;1.90;;;;;;;;;;4992609;28;92939;-71
2022/08/30 13:00:31;;;;;;;2.45;1.85;;;;;;;;;;4992755;28;94831;-71
2022/08/30 13:03:00;;;;;;;15.77;1.83;;;;;;;;;;4997217;28;94394;-71
2022/08/30 13:05:39;;;;;;;4.80;1.90;;;;;;;;;;4996704;28;92493;-71
2022/08/30 13:08:13;;;;;;;5.13;1.45;;;;;;;;;;4992522;28;92965;-72
2022/08/30 13:10:53;;;;;;;1.80;1.60;;;;;;;;;;4996810;28;93293;-71
2022/08/30 13:13:37;;;;;;;1.88;1.45;;;;;;;;;;4996685;28;92791;-71
2022/08/30 13:16:23;;;;;;;3.97;1.83;;;;;;;;;;4997275;28;93113;-71
2022/08/30 13:18:53;;;;;;;7.13;1.90;;;;;;;;;;4999717;28;93364;-71
2022/08/30 13:21:22;;;;;;;2.20;1.55;;;;;;;;;;4997363;28;92630;-71
2022/08/30 13:23:51;;;;;;;2.65;1.92;;;;;;;;;;4997012;28;93562;-71
2022/08/30 13:26:18;;;;;;;2.33;1.95;;;;;;;;;;4994898;28;95436;-72
2022/08/30 13:28:50;;;;;;;3.10;1.80;;;;;;;;;;4997014;28;95493;-71
2022/08/30 13:31:16;;;;;;;3.33;1.80;;;;;;;;;;4996927;28;94255;-71
2022/08/30 13:33:45;;;;;;;2.72;2.40;;;;;;;;;;4996235;28;92412;-71
2022/08/30 13:36:13;;;;;;;3.60;2.70;;;;;;;;;;4997056;28;94104;-71
2022/08/30 13:38:40;;;;;;;5.00;2.60;;;;;;;;;;4997240;28;93337;-71
2022/08/30 13:41:08;;;;;;;4.15;2.50;;;;;;;;;;4999304;28;92531;-71
2022/08/30 13:43:37;;;;;;;3.00;2.38;;;;;;;;;;4997226;28;92429;-71
2022/08/30 13:46:25;;;;;;;7.05;2.65;;;;;;;;;;4996603;28;93824;-71
2022/08/30 13:48:59;;;;;;;5.95;2.80;;;;;;;;;;4996048;28;92396;-71
2022/08/30 13:51:27;;;;;;;2.38;2.17;;;;;;;;;;4989333;28;96570;-71
2022/08/30 13:53:53;;;;;;;2.45;2.25;;;;;;;;;;4995612;28;92563;-71
2022/08/30 13:56:23;;;;;;;3.25;2.10;;;;;;;;;;4997026;28;94355;-71
2022/08/30 13:58:50;;;;;;;7.82;2.53;;;;;;;;;;4996380;28;94467;-71
2022/08/30 14:01:18;;;;;;;7.78;2.63;;;;;;;;;;4995898;28;92917;-71
2022/08/30 14:03:44;;;;;;;3.60;1.65;;;;;;;;;;4999324;28;94242;-71
2022/08/30 14:06:30;;;;;;;5.80;2.38;;;;;;;;;;4996858;28;92446;-71
2022/08/30 14:08:59;;;;;;;4.50;1.88;;;;;;;;;;4995349;28;93959;-71
2022/08/30 14:11:29;;;;;;;3.75;2.05;;;;;;;;;;4996184;28;93460;-71
2022/08/30 14:13:56;;;;;;;4.25;2.17;;;;;;;;;;4995932;28;93587;-71
2022/08/30 14:16:43;;;;;;;1.75;1.65;;;;;;;;;;4993336;28;95195;-72
2022/08/30 14:19:11;;;;;;;1.67;1.48;;;;;;;;;;4990173;28;94235;-71
2022/08/30 14:21:37;;;;;;;1.95;1.67;;;;;;;;;;4995637;28;92431;-71
2022/08/30 14:24:05;;;;;;;1.75;1.55;;;;;;;;;;4999180;28;93886;-71
2022/08/30 14:26:36;;;;;;;3.17;1.50;;;;;;;;;;4996824;28;92485;-71
2022/08/30 14:29:07;;;;;;;2.53;1.55;;;;;;;;;;4995471;28;93251;-71
2022/08/30 14:31:35;;;;;;;1.70;1.60;;;;;;;;;;4995947;28;94360;-71
2022/08/30 14:34:03;;;;;;;2.25;1.67;;;;;;;;;;4996890;28;91634;-71
2022/08/30 14:36:31;;;;;;;5.78;1.73;;;;;;;;;;4995118;28;93404;-71
2022/08/30 14:38:58;;;;;;;2.58;1.40;;;;;;;;;;4995629;28;94188;-71
2022/08/30 14:41:25;;;;;;;1.77;1.30;;;;;;;;;;4994968;28;94924;-71
2022/08/30 14:43:51;;;;;;;7.40;1.60;;;;;;;;;;4994861;28;96337;-71
2022/08/30 14:46:18;;;;;;;3.08;1.70;;;;;;;;;;4999229;28;93737;-71
2022/08/30 14:48:44;;;;;;;2.08;1.40;;;;;;;;;;4995681;28;93948;-71
2022/08/30 14:51:16;;;;;;;4.05;1.75;;;;;;;;;;4994659;28;93145;-71
2022/08/30 14:53:43;;;;;;;3.72;1.35;;;;;;;;;;4995631;28;92529;-71
2022/08/30 14:56:11;;;;;;;3.97;1.40;;;;;;;;;;4995918;28;93267;-72
2022/08/30 14:58:38;;;;;;;5.72;1.60;;;;;;;;;;4995231;28;92597;-71
2022/08/30 15:01:05;;;;;;;3.90;1.30;;;;;;;;;;4995869;28;92462;-72